Time;durP1;ratioP1;P1;durP2;ratioP2;P2;SDS_P1;SDS_P2;PMS_P1;PMS_P2;Temp;Humidity;BMP_temperature;BMP_pressure;BME280_temperature;BME280_humidity;BME280_pressure;Samples;Min_cycle;Max_cycle;Signal;HPM_P1;HPM_P2
2021/08/22 10:52:28;;;;;;;2.80;1.40;;;;;;;25.53;38.61;99390.26;1853465;77;22183;-63
2021/08/22 10:55:14;;;;;;;4.50;1.65;;;;;;;25.44;38.15;99387.15;1870632;76;22178;-64
2021/08/22 10:57:56;;;;;;;3.20;1.30;;;;;;;25.39;37.92;99390.02;1869702;76;22174;-63
2021/08/22 11:00:36;;;;;;;6.75;1.70;;;;;;;25.35;38.49;99387.09;1870681;76;22601;-62
2021/08/22 11:03:22;;;;;;;4.03;1.72;;;;;;;25.53;38.14;99393.38;1870593;76;22563;-64
2021/08/22 11:06:01;;;;;;;4.80;1.85;;;;;;;25.85;38.11;99397.72;1889945;76;22135;-63
2021/08/22 11:08:56;;;;;;;5.08;1.70;;;;;;;26.28;37.47;99393.11;1870394;76;22284;-63
2021/08/22 11:11:50;;;;;;;3.77;1.60;;;;;;;26.60;36.28;99385.86;1889889;76;22132;-63
2021/08/22 11:14:25;;;;;;;3.65;1.72;;;;;;;26.89;35.85;99382.25;1870621;76;22133;-61
2021/08/22 11:16:59;;;;;;;2.25;1.40;;;;;;;27.14;35.47;99374.41;1889947;76;22108;-62
2021/08/22 11:19:34;;;;;;;3.15;1.47;;;;;;;27.23;35.44;99385.92;1889916;76;22155;-63
2021/08/22 11:22:26;;;;;;;5.45;1.70;;;;;;;27.29;35.15;99381.62;1870622;76;22555;-63
2021/08/22 11:25:25;;;;;;;3.45;1.12;;;;;;;27.03;35.04;99378.94;1870563;76;22592;-63
2021/08/22 11:28:19;;;;;;;2.98;1.25;;;;;;;26.72;35.24;99372.98;1870708;76;22145;-62
2021/08/22 11:30:55;;;;;;;2.83;1.50;;;;;;;26.59;35.34;99378.02;1834878;77;22188;-63
2021/08/22 11:33:32;;;;;;;3.87;1.60;;;;;;;26.52;35.54;99372.15;1873881;76;27874;-63
2021/08/22 11:36:29;;;;;;;5.12;1.50;;;;;;;26.49;35.64;99371.42;1870494;76;22618;-64
2021/08/22 11:39:16;;;;;;;2.60;1.20;;;;;;;26.44;35.69;99368.98;1870538;76;22559;-64
2021/08/22 11:41:51;;;;;;;2.25;1.17;;;;;;;26.56;35.68;99363.14;1870676;76;22172;-63
2021/08/22 11:44:26;;;;;;;3.30;1.30;;;;;;;26.81;35.07;99364.56;1889944;76;22135;-61
2021/08/22 11:47:04;;;;;;;3.05;1.25;;;;;;;26.92;35.15;99366.23;1889954;76;22128;-64
2021/08/22 11:49:58;;;;;;;3.77;1.40;;;;;;;26.88;34.67;99365.13;1889920;76;22140;-62
2021/08/22 11:52:45;;;;;;;4.37;1.67;;;;;;;26.53;34.99;99355.32;1889939;76;22171;-64
2021/08/22 11:55:23;;;;;;;5.28;1.80;;;;;;;26.25;35.68;99362.84;1889938;76;22168;-63
2021/08/22 11:58:20;;;;;;;3.15;1.62;;;;;;;26.07;36.44;99354.83;1889878;76;22140;-63
2021/08/22 12:00:55;;;;;;;5.95;1.35;;;;;;;25.85;35.92;99357.62;1870466;76;22163;-63
2021/08/22 12:03:32;;;;;;;3.55;1.50;;;;;;;25.59;36.13;99357.41;1870410;76;22160;-63
2021/08/22 12:06:07;;;;;;;7.42;1.60;;;;;;;25.42;36.35;99363.92;1870657;76;22133;-62
2021/08/22 12:08:46;;;;;;;3.22;1.50;;;;;;;25.30;37.60;99357.38;1870709;76;22167;-63
2021/08/22 12:11:24;;;;;;;4.53;1.82;;;;;;;25.23;37.46;99358.09;1870625;76;22587;-61
2021/08/22 12:14:19;;;;;;;3.92;1.60;;;;;;;25.10;37.63;99358.19;1890068;76;22144;-64
2021/08/22 12:16:59;;;;;;;4.03;1.30;;;;;;;24.98;38.12;99350.78;1861772;76;22171;-61
2021/08/22 12:19:54;;;;;;;6.45;1.50;;;;;;;24.86;37.74;99353.02;1870489;76;22587;-59
2021/08/22 12:22:29;;;;;;;5.15;1.50;;;;;;;24.84;37.90;99344.30;1870641;76;22168;-61
2021/08/22 12:25:25;;;;;;;3.42;1.50;;;;;;;24.85;37.97;99352.59;1869770;76;22146;-60
2021/08/22 12:28:27;;;;;;;3.50;1.30;;;;;;;24.97;37.34;99350.39;1889841;76;22195;-61
2021/08/22 12:31:18;;;;;;;3.62;1.65;;;;;;;25.24;37.28;99347.94;1873867;76;27864;-59
2021/08/22 12:33:55;;;;;;;2.58;1.22;;;;;;;25.57;37.36;99348.71;1889822;76;22635;-60
2021/08/22 12:36:42;;;;;;;3.30;1.57;;;;;;;25.94;36.37;99340.45;1889862;76;22586;-59
2021/08/22 12:39:19;;;;;;;3.25;1.50;;;;;;;25.97;35.58;99346.92;1870616;76;22557;-58
2021/08/22 12:42:21;;;;;;;4.30;1.20;;;;;;;25.77;35.44;99344.71;1862091;76;22662;-60
2021/08/22 12:44:57;;;;;;;3.05;1.50;;;;;;;25.60;35.63;99347.72;1855237;76;22160;-59
2021/08/22 12:47:40;;;;;;;5.78;1.52;;;;;;;25.46;35.94;99337.27;1862269;76;22680;-59
2021/08/22 12:50:16;;;;;;;4.75;2.20;;;;;;;25.48;36.52;99343.82;1863367;76;22183;-57
2021/08/22 12:52:51;;;;;;;3.22;1.30;;;;;;;25.65;37.13;99343.09;1869260;76;22119;-60
2021/08/22 12:55:26;;;;;;;3.20;1.37;;;;;;;26.03;36.36;99345.33;1855991;76;22247;-59
2021/08/22 12:58:22;;;;;;;2.98;1.42;;;;;;;26.50;35.92;99339.56;1851747;76;22182;-58
2021/08/22 13:01:05;;;;;;;3.20;1.37;;;;;;;26.97;34.96;99340.38;1870642;76;22205;-60
2021/08/22 13:03:47;;;;;;;2.92;1.60;;;;;;;27.21;34.77;99344.06;1856145;76;22243;-61
2021/08/22 13:06:25;;;;;;;4.45;2.65;;;;;;;27.32;35.13;99340.84;1853971;76;22203;-63
2021/08/22 13:09:00;;;;;;;3.90;1.72;;;;;;;27.21;34.44;99346.70;1842762;76;22173;-63
2021/08/22 13:11:41;;;;;;;4.97;2.35;;;;;;;27.04;33.87;99341.75;1869848;76;22243;-64
2021/08/22 13:14:35;;;;;;;3.30;1.70;;;;;;;26.98;34.54;99338.58;1870804;76;22105;-65
2021/08/22 13:17:29;;;;;;;3.20;1.35;;;;;;;26.87;34.49;99340.45;1889889;76;22144;-60
2021/08/22 13:20:08;;;;;;;7.75;1.87;;;;;;;26.80;34.94;99339.03;1890078;76;22176;-61
2021/08/22 13:23:02;;;;;;;4.42;2.20;;;;;;;26.73;34.40;99324.38;1870520;76;22173;-63
2021/08/22 13:25:55;;;;;;;4.35;2.10;;;;;;;26.75;34.22;99329.14;1889890;76;22128;-64
2021/08/22 13:28:31;;;;;;;3.52;1.52;;;;;;;26.91;33.91;99327.42;1890204;76;22128;-61
